sensor_id;sensor_type;location;lat;lon;timestamp;pressure;altitude;pressure_sealevel;temperature
14666;BMP280;7420;53.574;10.040;2023-10-31T00:00:05;53696.22;;;-136.87
14666;BMP280;7420;53.574;10.040;2023-10-31T00:02:30;53702.34;;;-136.87
14666;BMP280;7420;53.574;10.040;2023-10-31T00:04:56;53700.31;;;-136.87
14666;BMP280;7420;53.574;10.040;2023-10-31T00:07:22;53716.66;;;-136.87
14666;BMP280;7420;53.574;10.040;2023-10-31T00:09:47;53720.75;;;-136.87
14666;BMP280;7420;53.574;10.040;2023-10-31T00:12:12;53739.13;;;-136.87
14666;BMP280;7420;53.574;10.040;2023-10-31T00:14:39;53720.75;;;-136.87
14666;BMP280;7420;53.574;10.040;2023-10-31T00:17:04;53710.53;;;-136.87
14666;BMP280;7420;53.574;10.040;2023-10-31T00:19:29;53718.69;;;-136.87
14666;BMP280;7420;53.574;10.040;2023-10-31T00:21:55;53714.63;;;-136.87
14666;BMP280;7420;53.574;10.040;2023-10-31T00:24:20;53737.06;;;-136.87
14666;BMP280;7420;53.574;10.040;2023-10-31T00:29:31;53716.66;;;-136.87
14666;BMP280;7420;53.574;10.040;2023-10-31T00:31:56;53735.03;;;-136.87
14666;BMP280;7420;53.574;10.040;2023-10-31T00:34:22;53739.13;;;-136.87
14666;BMP280;7420;53.574;10.040;2023-10-31T00:36:47;53747.28;;;-136.87
14666;BMP280;7420;53.574;10.040;2023-10-31T00:39:12;53763.63;;;-136.87
14666;BMP280;7420;53.574;10.040;2023-10-31T00:41:39;53814.69;;;-136.87
14666;BMP280;7420;53.574;10.040;2023-10-31T00:44:05;53763.63;;;-136.87
14666;BMP280;7420;53.574;10.040;2023-10-31T00:46:30;53820.81;;;-136.87
14666;BMP280;7420;53.574;10.040;2023-10-31T00:48:55;53824.88;;;-136.87
14666;BMP280;7420;53.574;10.040;2023-10-31T00:51:21;53820.81;;;-136.87
14666;BMP280;7420;53.574;10.040;2023-10-31T00:53:46;53810.59;;;-136.87
14666;BMP280;7420;53.574;10.040;2023-10-31T00:56:12;53779.97;;;-136.87
14666;BMP280;7420;53.574;10.040;2023-10-31T00:58:37;53800.38;;;-136.87
14666;BMP280;7420;53.574;10.040;2023-10-31T01:01:02;53826.94;;;-136.87
14666;BMP280;7420;53.574;10.040;2023-10-31T01:16:36;53837.16;;;-136.87
14666;BMP280;7420;53.574;10.040;2023-10-31T01:19:02;53837.16;;;-136.87
14666;BMP280;7420;53.574;10.040;2023-10-31T01:21:28;53835.09;;;-136.87
14666;BMP280;7420;53.574;10.040;2023-10-31T01:23:53;53837.16;;;-136.87
14666;BMP280;7420;53.574;10.040;2023-10-31T01:26:18;53853.47;;;-136.87
14666;BMP280;7420;53.574;10.040;2023-10-31T01:28:44;53869.81;;;-136.87
14666;BMP280;7420;53.574;10.040;2023-10-31T01:31:09;53871.88;;;-136.87
14666;BMP280;7420;53.574;10.040;2023-10-31T01:33:35;53873.91;;;-136.87
14666;BMP280;7420;53.574;10.040;2023-10-31T01:36:00;53843.28;;;-136.87
14666;BMP280;7420;53.574;10.040;2023-10-31T01:38:25;53853.47;;;-136.87
14666;BMP280;7420;53.574;10.040;2023-10-31T01:40:51;53867.78;;;-136.87
14666;BMP280;7420;53.574;10.040;2023-10-31T01:43:32;53857.56;;;-136.87
14666;BMP280;7420;53.574;10.040;2023-10-31T01:45:58;53849.41;;;-136.87
14666;BMP280;7420;53.574;10.040;2023-10-31T01:48:24;53878.00;;;-136.87
14666;BMP280;7420;53.574;10.040;2023-10-31T01:50:50;53894.31;;;-136.87
14666;BMP280;7420;53.574;10.040;2023-10-31T01:53:16;53888.19;;;-136.87
14666;BMP280;7420;53.574;10.040;2023-10-31T01:55:43;53865.72;;;-136.87
14666;BMP280;7420;53.574;10.040;2023-10-31T01:58:09;53878.00;;;-136.87
14666;BMP280;7420;53.574;10.040;2023-10-31T02:00:34;53890.25;;;-136.87
14666;BMP280;7420;53.574;10.040;2023-10-31T02:03:01;53875.94;;;-136.87
14666;BMP280;7420;53.574;10.040;2023-10-31T02:05:27;53888.19;;;-136.87
14666;BMP280;7420;53.574;10.040;2023-10-31T02:07:53;53886.16;;;-136.87
14666;BMP280;7420;53.574;10.040;2023-10-31T02:10:19;53871.88;;;-136.87
14666;BMP280;7420;53.574;10.040;2023-10-31T02:12:44;53900.44;;;-136.87
14666;BMP280;7420;53.574;10.040;2023-10-31T02:15:09;53886.16;;;-136.87
14666;BMP280;7420;53.574;10.040;2023-10-31T02:17:35;53927.00;;;-136.87
14666;BMP280;7420;53.574;10.040;2023-10-31T02:20:00;53918.84;;;-136.87
14666;BMP280;7420;53.574;10.040;2023-10-31T02:22:26;53906.59;;;-136.87
14666;BMP280;7420;53.574;10.040;2023-10-31T02:24:52;53922.91;;;-136.87
14666;BMP280;7420;53.574;10.040;2023-10-31T02:27:17;53931.09;;;-136.87
14666;BMP280;7420;53.574;10.040;2023-10-31T02:29:42;53943.34;;;-136.87
14666;BMP280;7420;53.574;10.040;2023-10-31T02:32:08;53951.50;;;-136.87
14666;BMP280;7420;53.574;10.040;2023-10-31T02:34:33;53957.63;;;-136.87
14666;BMP280;7420;53.574;10.040;2023-10-31T02:36:59;53953.56;;;-136.87
14666;BMP280;7420;53.574;10.040;2023-10-31T02:39:25;53947.44;;;-136.87
14666;BMP280;7420;53.574;10.040;2023-10-31T02:41:50;53947.44;;;-136.87
14666;BMP280;7420;53.574;10.040;2023-10-31T02:44:16;53978.06;;;-136.87
14666;BMP280;7420;53.574;10.040;2023-10-31T02:46:41;53976.03;;;-136.87
14666;BMP280;7420;53.574;10.040;2023-10-31T02:49:06;53976.03;;;-136.87
14666;BMP280;7420;53.574;10.040;2023-10-31T02:51:34;53984.19;;;-136.87
14666;BMP280;7420;53.574;10.040;2023-10-31T02:53:59;53996.44;;;-136.87
14666;BMP280;7420;53.574;10.040;2023-10-31T02:56:24;53978.06;;;-136.87
14666;BMP280;7420;53.574;10.040;2023-10-31T02:58:50;53982.16;;;-136.87
14666;BMP280;7420;53.574;10.040;2023-10-31T03:01:16;53988.28;;;-136.87
14666;BMP280;7420;53.574;10.040;2023-10-31T03:03:43;54006.66;;;-136.87
14666;BMP280;7420;53.574;10.040;2023-10-31T03:06:08;54004.63;;;-136.87
14666;BMP280;7420;53.574;10.040;2023-10-31T03:08:33;54004.63;;;-136.87
14666;BMP280;7420;53.574;10.040;2023-10-31T03:10:59;54016.88;;;-136.87
14666;BMP280;7420;53.574;10.040;2023-10-31T03:13:24;54010.75;;;-136.87
14666;BMP280;7420;53.574;10.040;2023-10-31T03:15:49;54008.69;;;-136.87
14666;BMP280;7420;53.574;10.040;2023-10-31T03:18:15;54012.78;;;-136.87
14666;BMP280;7420;53.574;10.040;2023-10-31T03:20:43;54008.69;;;-136.87
14666;BMP280;7420;53.574;10.040;2023-10-31T03:23:08;54020.94;;;-136.87
14666;BMP280;7420;53.574;10.040;2023-10-31T03:25:34;54027.09;;;-136.87
14666;BMP280;7420;53.574;10.040;2023-10-31T03:27:59;54008.69;;;-136.87
14666;BMP280;7420;53.574;10.040;2023-10-31T03:30:24;54016.88;;;-136.87
14666;BMP280;7420;53.574;10.040;2023-10-31T03:32:50;54029.13;;;-136.87
14666;BMP280;7420;53.574;10.040;2023-10-31T03:35:15;54041.38;;;-136.87
14666;BMP280;7420;53.574;10.040;2023-10-31T03:37:40;54020.94;;;-136.87
14666;BMP280;7420;53.574;10.040;2023-10-31T03:40:09;54023.00;;;-136.87
14666;BMP280;7420;53.574;10.040;2023-10-31T03:42:34;54037.28;;;-136.87
14666;BMP280;7420;53.574;10.040;2023-10-31T03:45:00;54045.47;;;-136.87
14666;BMP280;7420;53.574;10.040;2023-10-31T03:47:25;54055.66;;;-136.87
14666;BMP280;7420;53.574;10.040;2023-10-31T03:49:50;54065.88;;;-136.87
14666;BMP280;7420;53.574;10.040;2023-10-31T03:52:16;54057.72;;;-136.87
14666;BMP280;7420;53.574;10.040;2023-10-31T03:54:41;54061.81;;;-136.87
14666;BMP280;7420;53.574;10.040;2023-10-31T03:57:06;54059.75;;;-136.87
14666;BMP280;7420;53.574;10.040;2023-10-31T03:59:32;54041.38;;;-136.87
14666;BMP280;7420;53.574;10.040;2023-10-31T04:01:57;54053.63;;;-136.87
14666;BMP280;7420;53.574;10.040;2023-10-31T04:04:22;54053.63;;;-136.87
14666;BMP280;7420;53.574;10.040;2023-10-31T04:06:48;54041.38;;;-136.87
14666;BMP280;7420;53.574;10.040;2023-10-31T04:09:13;54041.38;;;-136.87
14666;BMP280;7420;53.574;10.040;2023-10-31T04:11:39;54045.47;;;-136.87
14666;BMP280;7420;53.574;10.040;2023-10-31T04:14:05;54059.75;;;-136.87
14666;BMP280;7420;53.574;10.040;2023-10-31T04:16:31;54061.81;;;-136.87
14666;BMP280;7420;53.574;10.040;2023-10-31T04:18:56;54061.81;;;-136.87
14666;BMP280;7420;53.574;10.040;2023-10-31T04:21:22;54047.50;;;-136.87
14666;BMP280;7420;53.574;10.040;2023-10-31T04:23:47;54041.38;;;-136.87
14666;BMP280;7420;53.574;10.040;2023-10-31T04:26:12;54055.66;;;-136.87
14666;BMP280;7420;53.574;10.040;2023-10-31T04:28:39;54065.88;;;-136.87
14666;BMP280;7420;53.574;10.040;2023-10-31T04:31:04;54051.59;;;-136.87
14666;BMP280;7420;53.574;10.040;2023-10-31T04:33:29;54061.81;;;-136.87
14666;BMP280;7420;53.574;10.040;2023-10-31T04:35:55;54057.72;;;-136.87
14666;BMP280;7420;53.574;10.040;2023-10-31T04:38:20;54061.81;;;-136.87
14666;BMP280;7420;53.574;10.040;2023-10-31T04:40:45;54061.81;;;-136.87
14666;BMP280;7420;53.574;10.040;2023-10-31T04:43:11;54061.81;;;-136.87
14666;BMP280;7420;53.574;10.040;2023-10-31T04:45:36;54061.81;;;-136.87
14666;BMP280;7420;53.574;10.040;2023-10-31T04:48:02;54053.63;;;-136.87
14666;BMP280;7420;53.574;10.040;2023-10-31T04:50:27;54055.66;;;-136.87
14666;BMP280;7420;53.574;10.040;2023-10-31T04:52:52;54041.38;;;-136.87
14666;BMP280;7420;53.574;10.040;2023-10-31T04:55:18;54045.47;;;-136.87
14666;BMP280;7420;53.574;10.040;2023-10-31T04:57:43;54039.34;;;-136.87
14666;BMP280;7420;53.574;10.040;2023-10-31T05:00:09;54045.47;;;-136.87
14666;BMP280;7420;53.574;10.040;2023-10-31T05:02:35;54039.34;;;-136.87
14666;BMP280;7420;53.574;10.040;2023-10-31T05:05:00;54039.34;;;-136.87
14666;BMP280;7420;53.574;10.040;2023-10-31T05:07:26;54053.63;;;-136.87
14666;BMP280;7420;53.574;10.040;2023-10-31T05:09:51;54037.28;;;-136.87
14666;BMP280;7420;53.574;10.040;2023-10-31T05:12:16;54033.22;;;-136.87
14666;BMP280;7420;53.574;10.040;2023-10-31T05:14:42;54025.03;;;-136.87
14666;BMP280;7420;53.574;10.040;2023-10-31T05:17:07;54018.91;;;-136.87
14666;BMP280;7420;53.574;10.040;2023-10-31T05:19:32;54020.94;;;-136.87
14666;BMP280;7420;53.574;10.040;2023-10-31T05:21:58;54012.78;;;-136.87
14666;BMP280;7420;53.574;10.040;2023-10-31T05:24:23;54008.69;;;-136.87
14666;BMP280;7420;53.574;10.040;2023-10-31T05:26:48;54023.00;;;-136.87
14666;BMP280;7420;53.574;10.040;2023-10-31T05:29:14;54018.91;;;-136.87
14666;BMP280;7420;53.574;10.040;2023-10-31T05:31:39;54012.78;;;-136.87
14666;BMP280;7420;53.574;10.040;2023-10-31T05:34:06;54004.63;;;-136.87
14666;BMP280;7420;53.574;10.040;2023-10-31T05:36:32;54016.88;;;-136.87
14666;BMP280;7420;53.574;10.040;2023-10-31T05:38:57;54006.66;;;-136.87
14666;BMP280;7420;53.574;10.040;2023-10-31T05:41:22;54012.78;;;-136.87
14666;BMP280;7420;53.574;10.040;2023-10-31T05:43:48;54002.56;;;-136.87
14666;BMP280;7420;53.574;10.040;2023-10-31T05:46:13;54004.63;;;-136.87
14666;BMP280;7420;53.574;10.040;2023-10-31T05:48:41;54008.69;;;-136.87
14666;BMP280;7420;53.574;10.040;2023-10-31T05:51:16;54008.69;;;-136.87
14666;BMP280;7420;53.574;10.040;2023-10-31T05:53:43;53988.28;;;-136.87
14666;BMP280;7420;53.574;10.040;2023-10-31T05:56:09;54008.69;;;-136.87
14666;BMP280;7420;53.574;10.040;2023-10-31T05:58:36;53994.41;;;-136.87
14666;BMP280;7420;53.574;10.040;2023-10-31T06:01:02;54000.53;;;-136.87
14666;BMP280;7420;53.574;10.040;2023-10-31T06:03:27;54016.88;;;-136.87
14666;BMP280;7420;53.574;10.040;2023-10-31T06:05:52;53998.50;;;-136.87
14666;BMP280;7420;53.574;10.040;2023-10-31T06:08:18;54008.69;;;-136.87
14666;BMP280;7420;53.574;10.040;2023-10-31T06:10:43;53998.50;;;-136.87
14666;BMP280;7420;53.574;10.040;2023-10-31T06:13:08;53988.28;;;-136.87
14666;BMP280;7420;53.574;10.040;2023-10-31T06:15:34;53976.03;;;-136.87
14666;BMP280;7420;53.574;10.040;2023-10-31T06:17:59;53969.91;;;-136.87
14666;BMP280;7420;53.574;10.040;2023-10-31T06:20:26;53971.94;;;-136.87
14666;BMP280;7420;53.574;10.040;2023-10-31T06:22:51;53971.94;;;-136.87
14666;BMP280;7420;53.574;10.040;2023-10-31T06:25:16;53984.19;;;-136.87
14666;BMP280;7420;53.574;10.040;2023-10-31T06:27:42;53982.16;;;-136.87
14666;BMP280;7420;53.574;10.040;2023-10-31T06:30:08;53976.03;;;-136.87
14666;BMP280;7420;53.574;10.040;2023-10-31T06:32:33;53971.94;;;-136.87
14666;BMP280;7420;53.574;10.040;2023-10-31T06:34:58;53949.47;;;-136.87
14666;BMP280;7420;53.574;10.040;2023-10-31T06:37:24;53943.34;;;-136.87
14666;BMP280;7420;53.574;10.040;2023-10-31T06:39:49;53947.44;;;-136.87
14666;BMP280;7420;53.574;10.040;2023-10-31T06:42:14;53957.63;;;-136.87
14666;BMP280;7420;53.574;10.040;2023-10-31T06:44:40;53945.38;;;-136.87
14666;BMP280;7420;53.574;10.040;2023-10-31T06:47:05;53949.47;;;-136.87
14666;BMP280;7420;53.574;10.040;2023-10-31T06:49:31;53951.50;;;-136.87
14666;BMP280;7420;53.574;10.040;2023-10-31T06:51:56;53969.91;;;-136.87
14666;BMP280;7420;53.574;10.040;2023-10-31T06:54:21;53965.81;;;-136.87
14666;BMP280;7420;53.574;10.040;2023-10-31T06:56:47;53969.91;;;-136.87
14666;BMP280;7420;53.574;10.040;2023-10-31T06:59:12;53980.09;;;-136.87
14666;BMP280;7420;53.574;10.040;2023-10-31T07:01:37;54004.63;;;-136.87
14666;BMP280;7420;53.574;10.040;2023-10-31T07:04:03;54006.66;;;-136.87
14666;BMP280;7420;53.574;10.040;2023-10-31T07:06:29;54014.81;;;-136.87
14666;BMP280;7420;53.574;10.040;2023-10-31T07:08:54;54012.78;;;-136.87
14666;BMP280;7420;53.574;10.040;2023-10-31T07:11:19;54023.00;;;-136.87
14666;BMP280;7420;53.574;10.040;2023-10-31T07:13:45;54023.00;;;-136.87
14666;BMP280;7420;53.574;10.040;2023-10-31T07:16:10;54006.66;;;-136.87
14666;BMP280;7420;53.574;10.040;2023-10-31T07:18:36;54010.75;;;-136.87
14666;BMP280;7420;53.574;10.040;2023-10-31T07:21:01;53996.44;;;-136.87
14666;BMP280;7420;53.574;10.040;2023-10-31T07:23:26;54010.75;;;-136.87
14666;BMP280;7420;53.574;10.040;2023-10-31T07:25:52;54020.94;;;-136.87
14666;BMP280;7420;53.574;10.040;2023-10-31T07:28:17;54018.91;;;-136.87
14666;BMP280;7420;53.574;10.040;2023-10-31T07:30:43;54008.69;;;-136.87
14666;BMP280;7420;53.574;10.040;2023-10-31T07:33:09;54012.78;;;-136.87
14666;BMP280;7420;53.574;10.040;2023-10-31T07:35:34;54025.03;;;-136.87
14666;BMP280;7420;53.574;10.040;2023-10-31T07:37:59;54016.88;;;-136.87
14666;BMP280;7420;53.574;10.040;2023-10-31T07:40:25;54020.94;;;-136.87
14666;BMP280;7420;53.574;10.040;2023-10-31T07:42:50;54029.13;;;-136.87
14666;BMP280;7420;53.574;10.040;2023-10-31T07:45:15;54008.69;;;-136.87
14666;BMP280;7420;53.574;10.040;2023-10-31T07:47:41;54014.81;;;-136.87
14666;BMP280;7420;53.574;10.040;2023-10-31T07:50:06;54012.78;;;-136.87
14666;BMP280;7420;53.574;10.040;2023-10-31T07:52:32;54051.59;;;-136.87
14666;BMP280;7420;53.574;10.040;2023-10-31T07:54:57;54045.47;;;-136.87
14666;BMP280;7420;53.574;10.040;2023-10-31T07:57:22;54027.09;;;-136.87
14666;BMP280;7420;53.574;10.040;2023-10-31T07:59:48;54082.22;;;-136.87
14666;BMP280;7420;53.574;10.040;2023-10-31T08:02:13;54020.94;;;-136.87
14666;BMP280;7420;53.574;10.040;2023-10-31T08:04:39;53812.63;;;-136.87
14666;BMP280;7420;53.574;10.040;2023-10-31T08:07:04;53931.09;;;-136.87
14666;BMP280;7420;53.574;10.040;2023-10-31T08:09:30;54057.72;;;-136.87
14666;BMP280;7420;53.574;10.040;2023-10-31T08:11:55;54061.81;;;-136.87
14666;BMP280;7420;53.574;10.040;2023-10-31T08:14:21;54067.94;;;-136.87
14666;BMP280;7420;53.574;10.040;2023-10-31T08:16:47;54082.22;;;-136.87
14666;BMP280;7420;53.574;10.040;2023-10-31T08:19:13;54078.13;;;-136.87
14666;BMP280;7420;53.574;10.040;2023-10-31T08:21:39;54080.19;;;-136.87
14666;BMP280;7420;53.574;10.040;2023-10-31T08:24:05;54084.25;;;-136.87
14666;BMP280;7420;53.574;10.040;2023-10-31T08:26:31;54110.81;;;-136.87
14666;BMP280;7420;53.574;10.040;2023-10-31T08:28:57;54129.19;;;-136.87
14666;BMP280;7420;53.574;10.040;2023-10-31T08:31:22;54151.66;;;-136.87
14666;BMP280;7420;53.574;10.040;2023-10-31T08:33:48;54151.66;;;-136.87
14666;BMP280;7420;53.574;10.040;2023-10-31T08:36:13;54151.66;;;-136.87
14666;BMP280;7420;53.574;10.040;2023-10-31T08:38:38;54159.84;;;-136.87
14666;BMP280;7420;53.574;10.040;2023-10-31T08:41:04;54153.72;;;-136.87
14666;BMP280;7420;53.574;10.040;2023-10-31T08:43:30;54102.66;;;-136.87
14666;BMP280;7420;53.574;10.040;2023-10-31T08:45:55;54104.69;;;-136.87
14666;BMP280;7420;53.574;10.040;2023-10-31T08:48:21;54094.47;;;-136.87
14666;BMP280;7420;53.574;10.040;2023-10-31T08:50:46;54112.84;;;-136.87
14666;BMP280;7420;53.574;10.040;2023-10-31T08:53:12;54082.22;;;-136.87
14666;BMP280;7420;53.574;10.040;2023-10-31T08:55:37;54035.25;;;-136.87
14666;BMP280;7420;53.574;10.040;2023-10-31T08:58:03;53841.22;;;-136.87
14666;BMP280;7420;53.574;10.040;2023-10-31T09:00:28;53712.56;;;-136.87
14666;BMP280;7420;53.574;10.040;2023-10-31T09:02:54;53947.44;;;-136.87
14666;BMP280;7420;53.574;10.040;2023-10-31T09:05:19;53959.69;;;-136.87
14666;BMP280;7420;53.574;10.040;2023-10-31T09:07:45;53908.63;;;-136.87
14666;BMP280;7420;53.574;10.040;2023-10-31T09:10:12;54002.56;;;-136.87
14666;BMP280;7420;53.574;10.040;2023-10-31T09:12:37;54033.22;;;-136.87
14666;BMP280;7420;53.574;10.040;2023-10-31T09:15:03;54055.66;;;-136.87
14666;BMP280;7420;53.574;10.040;2023-10-31T09:17:29;54069.97;;;-136.87
14666;BMP280;7420;53.574;10.040;2023-10-31T09:19:55;54069.97;;;-136.87
14666;BMP280;7420;53.574;10.040;2023-10-31T09:22:20;54100.59;;;-136.87
14666;BMP280;7420;53.574;10.040;2023-10-31T09:24:46;54127.16;;;-136.87
14666;BMP280;7420;53.574;10.040;2023-10-31T09:27:11;54104.69;;;-136.87
14666;BMP280;7420;53.574;10.040;2023-10-31T09:29:36;54065.88;;;-136.87
14666;BMP280;7420;53.574;10.040;2023-10-31T09:32:02;53939.25;;;-136.87
14666;BMP280;7420;53.574;10.040;2023-10-31T09:34:28;53816.72;;;-136.87
14666;BMP280;7420;53.574;10.040;2023-10-31T09:36:54;53941.31;;;-136.87
14666;BMP280;7420;53.574;10.040;2023-10-31T09:39:19;54039.34;;;-136.87
14666;BMP280;7420;53.574;10.040;2023-10-31T09:41:44;54125.13;;;-136.87
14666;BMP280;7420;53.574;10.040;2023-10-31T09:44:10;54163.91;;;-136.87
14666;BMP280;7420;53.574;10.040;2023-10-31T09:46:35;54168.00;;;-136.87
14666;BMP280;7420;53.574;10.040;2023-10-31T09:51:27;54186.38;;;-136.87
14666;BMP280;7420;53.574;10.040;2023-10-31T09:53:54;54194.56;;;-136.87
14666;BMP280;7420;53.574;10.040;2023-10-31T09:56:21;54186.38;;;-136.87
14666;BMP280;7420;53.574;10.040;2023-10-31T10:01:12;54137.38;;;-136.87
14666;BMP280;7420;53.574;10.040;2023-10-31T10:03:38;53937.22;;;-136.87
14666;BMP280;7420;53.574;10.040;2023-10-31T10:06:03;53828.97;;;-136.87
14666;BMP280;7420;53.574;10.040;2023-10-31T10:08:29;53722.78;;;-136.87
14666;BMP280;7420;53.574;10.040;2023-10-31T10:10:55;52795.78;;;-136.87
14666;BMP280;7420;53.574;10.040;2023-10-31T10:13:21;52983.63;;;-136.87
14666;BMP280;7420;53.574;10.040;2023-10-31T10:15:48;52955.03;;;-136.87
14666;BMP280;7420;53.574;10.040;2023-10-31T10:18:29;53463.44;;;-136.87
14666;BMP280;7420;53.574;10.040;2023-10-31T10:20:59;53992.34;;;-136.87
14666;BMP280;7420;53.574;10.040;2023-10-31T10:23:25;54008.69;;;-136.87
14666;BMP280;7420;53.574;10.040;2023-10-31T10:25:51;54041.38;;;-136.87
14666;BMP280;7420;53.574;10.040;2023-10-31T10:28:17;54161.88;;;-136.87
14666;BMP280;7420;53.574;10.040;2023-10-31T10:33:14;54182.31;;;-136.87
14666;BMP280;7420;53.574;10.040;2023-10-31T10:35:39;54168.00;;;-136.87
14666;BMP280;7420;53.574;10.040;2023-10-31T10:38:10;54151.66;;;-136.87
14666;BMP280;7420;53.574;10.040;2023-10-31T10:40:36;54135.31;;;-136.87
14666;BMP280;7420;53.574;10.040;2023-10-31T10:43:04;54123.06;;;-136.87
14666;BMP280;7420;53.574;10.040;2023-10-31T10:45:35;54106.72;;;-136.87
14666;BMP280;7420;53.574;10.040;2023-10-31T10:48:04;54055.66;;;-136.87
14666;BMP280;7420;53.574;10.040;2023-10-31T10:50:34;54074.06;;;-136.87
14666;BMP280;7420;53.574;10.040;2023-10-31T10:53:08;53967.84;;;-136.87
14666;BMP280;7420;53.574;10.040;2023-10-31T10:55:39;53994.41;;;-136.87
14666;BMP280;7420;53.574;10.040;2023-10-31T10:58:08;53855.53;;;-136.87
14666;BMP280;7420;53.574;10.040;2023-10-31T11:00:35;53906.59;;;-136.87
14666;BMP280;7420;53.574;10.040;2023-10-31T11:03:01;53878.00;;;-136.87
14666;BMP280;7420;53.574;10.040;2023-10-31T11:05:28;53898.41;;;-136.87
14666;BMP280;7420;53.574;10.040;2023-10-31T11:07:56;53886.16;;;-136.87
14666;BMP280;7420;53.574;10.040;2023-10-31T11:10:22;53839.19;;;-136.87
14666;BMP280;7420;53.574;10.040;2023-10-31T11:12:48;53939.25;;;-136.87
14666;BMP280;7420;53.574;10.040;2023-10-31T11:15:16;54057.72;;;-136.87
14666;BMP280;7420;53.574;10.040;2023-10-31T11:17:44;54104.69;;;-136.87
14666;BMP280;7420;53.574;10.040;2023-10-31T11:20:11;54114.91;;;-136.87
14666;BMP280;7420;53.574;10.040;2023-10-31T11:22:43;54119.00;;;-136.87
14666;BMP280;7420;53.574;10.040;2023-10-31T11:25:18;54033.22;;;-136.87
14666;BMP280;7420;53.574;10.040;2023-10-31T11:27:52;53463.44;;;-136.87
14666;BMP280;7420;53.574;10.040;2023-10-31T11:30:31;51742.59;;;-136.87
14666;BMP280;7420;53.574;10.040;2023-10-31T11:32:58;45765.56;;;-136.87
14666;BMP280;7420;53.574;10.040;2023-10-31T11:35:24;46875.59;;;-136.87
14666;BMP280;7420;53.574;10.040;2023-10-31T11:38:04;30437.28;;;-136.87
14666;BMP280;7420;53.574;10.040;2023-10-31T11:40:33;30528.41;;;-136.87
14666;BMP280;7420;53.574;10.040;2023-10-31T11:43:02;21787.13;;;-136.87
14666;BMP280;7420;53.574;10.040;2023-10-31T11:45:34;19559.25;;;-136.87
14666;BMP280;7420;53.574;10.040;2023-10-31T11:48:01;18575.03;;;-136.87
14666;BMP280;7420;53.574;10.040;2023-10-31T11:50:26;22170.75;;;-136.87
14666;BMP280;7420;53.574;10.040;2023-10-31T11:53:21;36170.41;;;-136.87
14666;BMP280;7420;53.574;10.040;2023-10-31T11:55:48;52252.81;;;-136.87
14666;BMP280;7420;53.574;10.040;2023-10-31T11:58:18;50326.69;;;-136.87
14666;BMP280;7420;53.574;10.040;2023-10-31T12:00:48;36505.25;;;-136.87
14666;BMP280;7420;53.574;10.040;2023-10-31T12:03:20;18956.16;;;-136.87
14666;BMP280;7420;53.574;10.040;2023-10-31T12:05:56;18454.03;;;-136.87
14666;BMP280;7420;53.574;10.040;2023-10-31T12:08:30;35673.25;;;-136.87
14666;BMP280;7420;53.574;10.040;2023-10-31T12:13:31;11476.19;;;-136.87
14666;BMP280;7420;53.574;10.040;2023-10-31T12:15:56;11164.47;;;-136.87
14666;BMP280;7420;53.574;10.040;2023-10-31T12:18:23;12946.81;;;-136.87
14666;BMP280;7420;53.574;10.040;2023-10-31T12:20:50;11962.94;;;-136.87
14666;BMP280;7420;53.574;10.040;2023-10-31T12:23:17;11182.56;;;-136.87
14666;BMP280;7420;53.574;10.040;2023-10-31T12:25:49;10492.87;;;-136.87
14666;BMP280;7420;53.574;10.040;2023-10-31T12:28:18;12995.09;;;-136.87
14666;BMP280;7420;53.574;10.040;2023-10-31T12:30:47;10786.41;;;-136.87
14666;BMP280;7420;53.574;10.040;2023-10-31T12:33:13;14180.63;;;-136.87
14666;BMP280;7420;53.574;10.040;2023-10-31T12:35:39;14794.75;;;-136.87
14666;BMP280;7420;53.574;10.040;2023-10-31T12:38:05;17683.91;;;-136.87
14666;BMP280;7420;53.574;10.040;2023-10-31T12:40:31;23041.13;;;-136.87
14666;BMP280;7420;53.574;10.040;2023-10-31T12:42:57;38732.66;;;-136.87
14666;BMP280;7420;53.574;10.040;2023-10-31T12:45:24;15948.84;;;-136.87
14666;BMP280;7420;53.574;10.040;2023-10-31T12:48:11;13464.03;;;-136.87
14666;BMP280;7420;53.574;10.040;2023-10-31T12:50:38;13079.63;;;-136.87
14666;BMP280;7420;53.574;10.040;2023-10-31T12:53:06;14206.81;;;-136.87
14666;BMP280;7420;53.574;10.040;2023-10-31T12:55:41;21201.72;;;-136.87
14666;BMP280;7420;53.574;10.040;2023-10-31T12:58:07;16184.53;;;-136.87
14666;BMP280;7420;53.574;10.040;2023-10-31T13:00:36;16337.66;;;-136.87
14666;BMP280;7420;53.574;10.040;2023-10-31T13:03:06;13673.34;;;-136.87
14666;BMP280;7420;53.574;10.040;2023-10-31T13:05:32;13508.31;;;-136.87
14666;BMP280;7420;53.574;10.040;2023-10-31T13:08:01;12922.66;;;-136.87
14666;BMP280;7420;53.574;10.040;2023-10-31T13:10:30;18456.06;;;-136.87
14666;BMP280;7420;53.574;10.040;2023-10-31T13:12:58;20172.53;;;-136.87
14666;BMP280;7420;53.574;10.040;2023-10-31T13:15:24;24827.16;;;-136.87
14666;BMP280;7420;53.574;10.040;2023-10-31T13:17:50;38072.56;;;-136.87
14666;BMP280;7420;53.574;10.040;2023-10-31T13:20:19;50899.88;;;-136.87
14666;BMP280;7420;53.574;10.040;2023-10-31T13:22:45;53585.97;;;-136.87
14666;BMP280;7420;53.574;10.040;2023-10-31T13:25:13;53855.53;;;-136.87
14666;BMP280;7420;53.574;10.040;2023-10-31T13:27:40;53875.94;;;-136.87
14666;BMP280;7420;53.574;10.040;2023-10-31T13:30:07;53920.88;;;-136.87
14666;BMP280;7420;53.574;10.040;2023-10-31T13:32:33;53939.25;;;-136.87
14666;BMP280;7420;53.574;10.040;2023-10-31T13:34:59;54025.03;;;-136.87
14666;BMP280;7420;53.574;10.040;2023-10-31T13:37:25;54074.06;;;-136.87
14666;BMP280;7420;53.574;10.040;2023-10-31T13:39:50;54127.16;;;-136.87
14666;BMP280;7420;53.574;10.040;2023-10-31T13:42:16;54131.25;;;-136.87
14666;BMP280;7420;53.574;10.040;2023-10-31T13:44:42;54172.09;;;-136.87
14666;BMP280;7420;53.574;10.040;2023-10-31T13:47:07;54163.91;;;-136.87
14666;BMP280;7420;53.574;10.040;2023-10-31T13:49:33;54168.00;;;-136.87
14666;BMP280;7420;53.574;10.040;2023-10-31T13:51:58;54188.44;;;-136.87
14666;BMP280;7420;53.574;10.040;2023-10-31T13:54:24;54208.84;;;-136.87
14666;BMP280;7420;53.574;10.040;2023-10-31T13:56:49;54200.69;;;-136.87
14666;BMP280;7420;53.574;10.040;2023-10-31T13:59:15;54204.78;;;-136.87
14666;BMP280;7420;53.574;10.040;2023-10-31T14:01:41;54200.69;;;-136.87
14666;BMP280;7420;53.574;10.040;2023-10-31T14:04:07;54200.69;;;-136.87